CheckWX is a tool to help pilots better visualize weather data.  It is not intended as a substitute for an official pre-flight weather briefing.

06:30:45 UTC

KMBG METAR
Mobridge Municipal Airport
Mobridge, South Dakota, USA
Current

39 mins ago

KMBG 050552Z AUTO 15014G23KT 10SM CLR 23/16 A2993 RMK AO2 SLP120 T02280156 10317 20211 403440189 58004
Observed
Jul-5 @ 05:52 UTC
Wind
  • 150° at 14 KTS
  • Gusting to 23 KTS
Visibility
10 SM
Flight Rules
VFR
Cloud Levels
  • Clear skies
Dewpoint
16°C / 61°F
Humidity
65%
Altimeter
29.93" Hg
Pressure
1013.52 hPa
Previous

2 hours ago

KMBG 050452Z AUTO 14018G24KT 10SM CLR 22/17 A2995 RMK AO2 PK WND 14026/0442 LTG DSNT E SLP128 T02170172
Observed
Jul-5 @ 04:52 UTC
Wind
  • 140° at 18 KTS
  • Gusting to 24 KTS
Visibility
10 SM
Flight Rules
VFR
Cloud Levels
  • Clear skies
Temperature
22°C / 72°F
Dewpoint
17°C / 63°F
Humidity
73%
Altimeter
29.95" Hg
Pressure
1014.22 hPa
Previous

3 hours ago

KMBG 050352Z AUTO 12013KT 10SM CLR 21/17 A2996 RMK AO2 LTG DSNT NE-SE SLP133 T02110167
Observed
Jul-5 @ 03:52 UTC
Wind
  • 120° at 13 KTS
Visibility
10 SM
Flight Rules
VFR
Cloud Levels
  • Clear skies
Temperature
21°C / 70°F
Dewpoint
17°C / 63°F
Humidity
78%
Altimeter
29.96" Hg
Pressure
1014.52 hPa